sensor_id;sensor_type;location;lat;lon;timestamp;temperature;humidity
6879;DHT22;3478;51.462;7.338;2023-05-07T00:01:16;14.90;99.90
6879;DHT22;3478;51.462;7.338;2023-05-07T00:06:18;14.90;99.90
6879;DHT22;3478;51.462;7.338;2023-05-07T00:11:21;14.90;99.90
6879;DHT22;3478;51.462;7.338;2023-05-07T00:16:23;14.90;99.90
6879;DHT22;3478;51.462;7.338;2023-05-07T00:21:25;15.00;99.90
6879;DHT22;3478;51.462;7.338;2023-05-07T00:26:29;15.00;99.90
6879;DHT22;3478;51.462;7.338;2023-05-07T00:31:30;15.00;99.90
6879;DHT22;3478;51.462;7.338;2023-05-07T00:36:32;14.90;99.90
6879;DHT22;3478;51.462;7.338;2023-05-07T00:41:35;15.00;99.90
6879;DHT22;3478;51.462;7.338;2023-05-07T00:46:37;15.00;99.90
6879;DHT22;3478;51.462;7.338;2023-05-07T00:51:39;14.90;99.90
6879;DHT22;3478;51.462;7.338;2023-05-07T00:56:42;14.90;99.90
6879;DHT22;3478;51.462;7.338;2023-05-07T01:01:45;15.00;99.90
6879;DHT22;3478;51.462;7.338;2023-05-07T01:06:47;14.90;99.90
6879;DHT22;3478;51.462;7.338;2023-05-07T01:11:50;14.90;99.90
6879;DHT22;3478;51.462;7.338;2023-05-07T01:16:53;14.90;99.90
6879;DHT22;3478;51.462;7.338;2023-05-07T01:22:02;14.90;99.90
6879;DHT22;3478;51.462;7.338;2023-05-07T01:27:06;14.90;99.90
6879;DHT22;3478;51.462;7.338;2023-05-07T01:32:08;14.80;99.90
6879;DHT22;3478;51.462;7.338;2023-05-07T01:37:10;14.80;99.90
6879;DHT22;3478;51.462;7.338;2023-05-07T01:42:14;14.80;99.90
6879;DHT22;3478;51.462;7.338;2023-05-07T01:47:16;14.80;99.90
6879;DHT22;3478;51.462;7.338;2023-05-07T01:52:18;14.80;99.90
6879;DHT22;3478;51.462;7.338;2023-05-07T01:57:21;14.80;99.90
6879;DHT22;3478;51.462;7.338;2023-05-07T02:02:23;14.80;99.90
6879;DHT22;3478;51.462;7.338;2023-05-07T02:07:25;14.80;99.90
6879;DHT22;3478;51.462;7.338;2023-05-07T02:12:28;14.70;99.90
6879;DHT22;3478;51.462;7.338;2023-05-07T02:17:30;14.70;99.90
6879;DHT22;3478;51.462;7.338;2023-05-07T02:22:33;14.60;99.90
6879;DHT22;3478;51.462;7.338;2023-05-07T02:27:36;14.50;99.90
6879;DHT22;3478;51.462;7.338;2023-05-07T02:32:38;14.50;99.90
6879;DHT22;3478;51.462;7.338;2023-05-07T02:37:40;14.40;99.90
6879;DHT22;3478;51.462;7.338;2023-05-07T02:42:43;14.40;99.90
6879;DHT22;3478;51.462;7.338;2023-05-07T02:47:45;14.40;99.90
6879;DHT22;3478;51.462;7.338;2023-05-07T02:52:47;14.30;99.90
6879;DHT22;3478;51.462;7.338;2023-05-07T02:57:50;14.40;99.90
6879;DHT22;3478;51.462;7.338;2023-05-07T03:02:52;14.40;99.90
6879;DHT22;3478;51.462;7.338;2023-05-07T03:07:54;14.40;99.90
6879;DHT22;3478;51.462;7.338;2023-05-07T03:12:57;14.40;99.90
6879;DHT22;3478;51.462;7.338;2023-05-07T03:17:59;14.40;99.90
6879;DHT22;3478;51.462;7.338;2023-05-07T03:23:01;14.40;99.90
6879;DHT22;3478;51.462;7.338;2023-05-07T03:28:04;14.40;99.90
6879;DHT22;3478;51.462;7.338;2023-05-07T03:33:06;14.40;99.90
6879;DHT22;3478;51.462;7.338;2023-05-07T03:38:07;14.40;99.90
6879;DHT22;3478;51.462;7.338;2023-05-07T03:43:11;14.40;99.90
6879;DHT22;3478;51.462;7.338;2023-05-07T03:48:12;14.50;99.90
6879;DHT22;3478;51.462;7.338;2023-05-07T03:53:14;14.50;99.90
6879;DHT22;3478;51.462;7.338;2023-05-07T03:58:18;14.50;99.90
6879;DHT22;3478;51.462;7.338;2023-05-07T04:03:20;14.50;99.90
6879;DHT22;3478;51.462;7.338;2023-05-07T04:08:22;14.40;99.90
6879;DHT22;3478;51.462;7.338;2023-05-07T04:13:25;14.40;99.90
6879;DHT22;3478;51.462;7.338;2023-05-07T04:18:27;14.40;99.90
6879;DHT22;3478;51.462;7.338;2023-05-07T04:23:28;14.40;99.90
6879;DHT22;3478;51.462;7.338;2023-05-07T04:28:32;14.30;99.90
6879;DHT22;3478;51.462;7.338;2023-05-07T04:33:34;14.30;99.90
6879;DHT22;3478;51.462;7.338;2023-05-07T04:38:36;14.30;99.90
6879;DHT22;3478;51.462;7.338;2023-05-07T04:43:39;14.40;99.90
6879;DHT22;3478;51.462;7.338;2023-05-07T04:48:42;14.30;99.90
6879;DHT22;3478;51.462;7.338;2023-05-07T04:53:44;14.40;99.90
6879;DHT22;3478;51.462;7.338;2023-05-07T04:58:47;14.40;99.90
6879;DHT22;3478;51.462;7.338;2023-05-07T05:03:49;14.50;99.90
6879;DHT22;3478;51.462;7.338;2023-05-07T05:08:50;14.70;99.90
6879;DHT22;3478;51.462;7.338;2023-05-07T05:13:53;14.80;99.90
6879;DHT22;3478;51.462;7.338;2023-05-07T05:18:55;14.80;99.90
6879;DHT22;3478;51.462;7.338;2023-05-07T05:23:57;14.90;99.90
6879;DHT22;3478;51.462;7.338;2023-05-07T05:29:01;15.00;99.90
6879;DHT22;3478;51.462;7.338;2023-05-07T05:34:03;15.10;99.90
6879;DHT22;3478;51.462;7.338;2023-05-07T05:39:04;15.10;99.90
6879;DHT22;3478;51.462;7.338;2023-05-07T05:44:08;15.10;99.90
6879;DHT22;3478;51.462;7.338;2023-05-07T05:49:09;15.20;99.90
6879;DHT22;3478;51.462;7.338;2023-05-07T05:54:11;15.40;99.90
6879;DHT22;3478;51.462;7.338;2023-05-07T05:59:14;15.40;99.90
6879;DHT22;3478;51.462;7.338;2023-05-07T06:04:16;15.60;99.90
6879;DHT22;3478;51.462;7.338;2023-05-07T06:09:18;15.90;99.90
6879;DHT22;3478;51.462;7.338;2023-05-07T06:14:22;16.10;99.90
6879;DHT22;3478;51.462;7.338;2023-05-07T06:19:23;16.30;99.90
6879;DHT22;3478;51.462;7.338;2023-05-07T06:24:27;16.30;99.90
6879;DHT22;3478;51.462;7.338;2023-05-07T06:29:30;16.40;99.90
6879;DHT22;3478;51.462;7.338;2023-05-07T06:34:33;16.50;99.90
6879;DHT22;3478;51.462;7.338;2023-05-07T06:39:35;16.50;99.90
6879;DHT22;3478;51.462;7.338;2023-05-07T06:44:38;16.60;99.90
6879;DHT22;3478;51.462;7.338;2023-05-07T06:49:40;16.70;99.90
6879;DHT22;3478;51.462;7.338;2023-05-07T06:54:41;16.80;99.90
6879;DHT22;3478;51.462;7.338;2023-05-07T06:59:45;17.00;99.90
6879;DHT22;3478;51.462;7.338;2023-05-07T07:04:46;17.00;99.90
6879;DHT22;3478;51.462;7.338;2023-05-07T07:09:49;17.20;99.90
6879;DHT22;3478;51.462;7.338;2023-05-07T07:14:53;17.40;99.90
6879;DHT22;3478;51.462;7.338;2023-05-07T07:19:55;17.40;99.90
6879;DHT22;3478;51.462;7.338;2023-05-07T07:24:56;17.50;99.90
6879;DHT22;3478;51.462;7.338;2023-05-07T07:30:00;17.60;99.90
6879;DHT22;3478;51.462;7.338;2023-05-07T07:35:01;17.80;99.90
6879;DHT22;3478;51.462;7.338;2023-05-07T07:40:04;17.80;99.90
6879;DHT22;3478;51.462;7.338;2023-05-07T07:45:08;17.90;99.90
6879;DHT22;3478;51.462;7.338;2023-05-07T07:50:10;18.10;99.90
6879;DHT22;3478;51.462;7.338;2023-05-07T07:55:12;18.20;99.90
6879;DHT22;3478;51.462;7.338;2023-05-07T08:00:20;18.40;99.90
6879;DHT22;3478;51.462;7.338;2023-05-07T08:05:23;18.50;99.90
6879;DHT22;3478;51.462;7.338;2023-05-07T08:10:25;18.60;99.90
6879;DHT22;3478;51.462;7.338;2023-05-07T08:15:28;18.70;99.90
6879;DHT22;3478;51.462;7.338;2023-05-07T08:20:30;18.70;99.90
6879;DHT22;3478;51.462;7.338;2023-05-07T08:25:33;18.80;99.90
6879;DHT22;3478;51.462;7.338;2023-05-07T08:30:36;19.00;99.90
6879;DHT22;3478;51.462;7.338;2023-05-07T08:35:37;19.20;99.90
6879;DHT22;3478;51.462;7.338;2023-05-07T08:40:40;19.40;99.90
6879;DHT22;3478;51.462;7.338;2023-05-07T08:45:45;19.60;99.90
6879;DHT22;3478;51.462;7.338;2023-05-07T08:50:48;19.80;99.90
6879;DHT22;3478;51.462;7.338;2023-05-07T08:55:49;20.40;99.90
6879;DHT22;3478;51.462;7.338;2023-05-07T09:00:54;20.70;99.90
6879;DHT22;3478;51.462;7.338;2023-05-07T09:05:55;21.00;99.90
6879;DHT22;3478;51.462;7.338;2023-05-07T09:10:57;21.10;99.90
6879;DHT22;3478;51.462;7.338;2023-05-07T09:16:10;21.30;99.90
6879;DHT22;3478;51.462;7.338;2023-05-07T09:21:15;21.30;99.90
6879;DHT22;3478;51.462;7.338;2023-05-07T09:26:17;21.10;99.90
6879;DHT22;3478;51.462;7.338;2023-05-07T09:31:20;21.00;99.90
6879;DHT22;3478;51.462;7.338;2023-05-07T09:36:24;21.10;99.90
6879;DHT22;3478;51.462;7.338;2023-05-07T09:41:26;21.60;99.90
6879;DHT22;3478;51.462;7.338;2023-05-07T09:46:30;22.20;99.90
6879;DHT22;3478;51.462;7.338;2023-05-07T09:51:38;22.80;99.90
6879;DHT22;3478;51.462;7.338;2023-05-07T09:56:42;23.10;99.90
6879;DHT22;3478;51.462;7.338;2023-05-07T10:01:45;23.10;99.90
6879;DHT22;3478;51.462;7.338;2023-05-07T10:06:47;22.90;99.90
6879;DHT22;3478;51.462;7.338;2023-05-07T10:11:49;23.00;99.90
6879;DHT22;3478;51.462;7.338;2023-05-07T10:16:53;23.30;99.90
6879;DHT22;3478;51.462;7.338;2023-05-07T10:22:01;23.80;99.90
6879;DHT22;3478;51.462;7.338;2023-05-07T10:27:10;24.20;99.90
6879;DHT22;3478;51.462;7.338;2023-05-07T10:32:27;24.20;99.90
6879;DHT22;3478;51.462;7.338;2023-05-07T10:37:32;25.10;99.90
6879;DHT22;3478;51.462;7.338;2023-05-07T10:42:35;25.70;99.90
6879;DHT22;3478;51.462;7.338;2023-05-07T10:48:11;25.70;99.90
6879;DHT22;3478;51.462;7.338;2023-05-07T10:53:24;25.40;99.90
6879;DHT22;3478;51.462;7.338;2023-05-07T10:58:30;24.50;99.90
6879;DHT22;3478;51.462;7.338;2023-05-07T11:03:35;24.40;99.90
6879;DHT22;3478;51.462;7.338;2023-05-07T11:08:55;24.40;99.90
6879;DHT22;3478;51.462;7.338;2023-05-07T11:13:57;24.20;99.90
6879;DHT22;3478;51.462;7.338;2023-05-07T11:19:01;23.80;99.90
6879;DHT22;3478;51.462;7.338;2023-05-07T11:24:04;23.30;99.90
6879;DHT22;3478;51.462;7.338;2023-05-07T11:29:10;23.10;99.90
6879;DHT22;3478;51.462;7.338;2023-05-07T11:34:15;22.60;99.90
6879;DHT22;3478;51.462;7.338;2023-05-07T11:39:29;22.20;99.90
6879;DHT22;3478;51.462;7.338;2023-05-07T11:44:42;22.20;99.90
6879;DHT22;3478;51.462;7.338;2023-05-07T11:49:48;22.10;99.90
6879;DHT22;3478;51.462;7.338;2023-05-07T11:54:50;22.10;99.90
6879;DHT22;3478;51.462;7.338;2023-05-07T11:59:53;22.10;99.90
6879;DHT22;3478;51.462;7.338;2023-05-07T12:04:56;22.00;99.90
6879;DHT22;3478;51.462;7.338;2023-05-07T12:09:58;21.90;99.90
6879;DHT22;3478;51.462;7.338;2023-05-07T12:15:00;22.10;99.90
6879;DHT22;3478;51.462;7.338;2023-05-07T12:20:05;22.10;99.90
6879;DHT22;3478;51.462;7.338;2023-05-07T12:25:08;22.10;99.90
6879;DHT22;3478;51.462;7.338;2023-05-07T12:30:12;22.40;99.90
6879;DHT22;3478;51.462;7.338;2023-05-07T12:35:16;22.50;99.90
6879;DHT22;3478;51.462;7.338;2023-05-07T12:40:18;22.70;99.90
6879;DHT22;3478;51.462;7.338;2023-05-07T12:45:19;23.40;99.90
6879;DHT22;3478;51.462;7.338;2023-05-07T12:50:23;23.80;99.90
6879;DHT22;3478;51.462;7.338;2023-05-07T12:55:25;23.20;99.90
6879;DHT22;3478;51.462;7.338;2023-05-07T13:00:34;22.60;99.90
6879;DHT22;3478;51.462;7.338;2023-05-07T13:05:39;22.30;99.90
6879;DHT22;3478;51.462;7.338;2023-05-07T13:10:41;21.70;99.90
6879;DHT22;3478;51.462;7.338;2023-05-07T13:15:42;21.70;99.90
6879;DHT22;3478;51.462;7.338;2023-05-07T13:20:46;21.50;99.90
6879;DHT22;3478;51.462;7.338;2023-05-07T13:25:48;21.20;99.90
6879;DHT22;3478;51.462;7.338;2023-05-07T13:30:52;20.90;99.90
6879;DHT22;3478;51.462;7.338;2023-05-07T13:35:56;20.80;99.90
6879;DHT22;3478;51.462;7.338;2023-05-07T13:40:58;20.60;99.90
6879;DHT22;3478;51.462;7.338;2023-05-07T13:46:00;20.30;99.90
6879;DHT22;3478;51.462;7.338;2023-05-07T13:51:04;20.10;99.90
6879;DHT22;3478;51.462;7.338;2023-05-07T13:56:06;20.10;99.90
6879;DHT22;3478;51.462;7.338;2023-05-07T14:01:08;20.00;99.90
6879;DHT22;3478;51.462;7.338;2023-05-07T14:06:11;20.00;99.90
6879;DHT22;3478;51.462;7.338;2023-05-07T14:11:13;20.00;99.90
6879;DHT22;3478;51.462;7.338;2023-05-07T14:16:15;20.00;99.90
6879;DHT22;3478;51.462;7.338;2023-05-07T14:21:18;20.00;99.90
6879;DHT22;3478;51.462;7.338;2023-05-07T14:26:20;20.00;99.90
6879;DHT22;3478;51.462;7.338;2023-05-07T14:31:23;20.00;99.90
6879;DHT22;3478;51.462;7.338;2023-05-07T14:36:27;20.10;99.90
6879;DHT22;3478;51.462;7.338;2023-05-07T14:41:30;20.10;99.90
6879;DHT22;3478;51.462;7.338;2023-05-07T14:46:33;20.00;99.90
6879;DHT22;3478;51.462;7.338;2023-05-07T14:51:37;20.00;99.90
6879;DHT22;3478;51.462;7.338;2023-05-07T14:56:39;20.10;99.90
6879;DHT22;3478;51.462;7.338;2023-05-07T15:01:42;20.10;99.90
6879;DHT22;3478;51.462;7.338;2023-05-07T15:06:47;20.20;99.90
6879;DHT22;3478;51.462;7.338;2023-05-07T15:11:49;20.40;99.90
6879;DHT22;3478;51.462;7.338;2023-05-07T15:16:51;20.50;99.90
6879;DHT22;3478;51.462;7.338;2023-05-07T15:21:54;20.50;99.90
6879;DHT22;3478;51.462;7.338;2023-05-07T15:26:57;20.40;99.90
6879;DHT22;3478;51.462;7.338;2023-05-07T15:31:59;20.10;99.90
6879;DHT22;3478;51.462;7.338;2023-05-07T15:37:02;20.00;99.90
6879;DHT22;3478;51.462;7.338;2023-05-07T15:42:04;19.80;99.90
6879;DHT22;3478;51.462;7.338;2023-05-07T15:47:06;19.90;99.90
6879;DHT22;3478;51.462;7.338;2023-05-07T15:52:10;19.90;99.90
6879;DHT22;3478;51.462;7.338;2023-05-07T15:57:14;19.90;99.90
6879;DHT22;3478;51.462;7.338;2023-05-07T16:02:18;19.80;99.90
6879;DHT22;3478;51.462;7.338;2023-05-07T16:07:23;19.70;99.90
6879;DHT22;3478;51.462;7.338;2023-05-07T16:12:25;19.70;99.90
6879;DHT22;3478;51.462;7.338;2023-05-07T16:17:27;19.60;99.90
6879;DHT22;3478;51.462;7.338;2023-05-07T16:22:31;19.70;99.90
6879;DHT22;3478;51.462;7.338;2023-05-07T16:27:33;19.70;99.90
6879;DHT22;3478;51.462;7.338;2023-05-07T16:32:34;19.70;99.90
6879;DHT22;3478;51.462;7.338;2023-05-07T16:37:40;19.70;99.90
6879;DHT22;3478;51.462;7.338;2023-05-07T16:42:42;19.70;99.90
6879;DHT22;3478;51.462;7.338;2023-05-07T16:47:44;19.80;99.90
6879;DHT22;3478;51.462;7.338;2023-05-07T16:52:47;19.70;99.90
6879;DHT22;3478;51.462;7.338;2023-05-07T16:57:49;19.70;99.90
6879;DHT22;3478;51.462;7.338;2023-05-07T17:02:51;19.60;99.90
6879;DHT22;3478;51.462;7.338;2023-05-07T17:07:55;19.50;99.90
6879;DHT22;3478;51.462;7.338;2023-05-07T17:12:57;19.50;99.90
6879;DHT22;3478;51.462;7.338;2023-05-07T17:17:59;19.40;99.90
6879;DHT22;3478;51.462;7.338;2023-05-07T17:23:02;19.20;99.90
6879;DHT22;3478;51.462;7.338;2023-05-07T17:28:04;19.10;99.90
6879;DHT22;3478;51.462;7.338;2023-05-07T17:33:06;18.90;99.90
6879;DHT22;3478;51.462;7.338;2023-05-07T17:38:10;18.80;99.90
6879;DHT22;3478;51.462;7.338;2023-05-07T17:43:12;18.70;99.90
6879;DHT22;3478;51.462;7.338;2023-05-07T17:48:14;18.70;99.90
6879;DHT22;3478;51.462;7.338;2023-05-07T17:53:18;18.60;99.90
6879;DHT22;3478;51.462;7.338;2023-05-07T17:58:23;18.50;99.90
6879;DHT22;3478;51.462;7.338;2023-05-07T18:03:26;18.40;99.90
6879;DHT22;3478;51.462;7.338;2023-05-07T18:08:30;18.40;99.90
6879;DHT22;3478;51.462;7.338;2023-05-07T18:13:32;18.30;99.90
6879;DHT22;3478;51.462;7.338;2023-05-07T18:18:34;18.10;99.90
6879;DHT22;3478;51.462;7.338;2023-05-07T18:23:37;18.00;99.90
6879;DHT22;3478;51.462;7.338;2023-05-07T18:28:40;17.90;99.90
6879;DHT22;3478;51.462;7.338;2023-05-07T18:33:42;17.80;99.90
6879;DHT22;3478;51.462;7.338;2023-05-07T18:38:45;17.70;99.90
6879;DHT22;3478;51.462;7.338;2023-05-07T18:43:47;17.60;99.90
6879;DHT22;3478;51.462;7.338;2023-05-07T18:48:49;17.50;99.90
6879;DHT22;3478;51.462;7.338;2023-05-07T18:53:53;17.40;99.90
6879;DHT22;3478;51.462;7.338;2023-05-07T18:58:55;17.40;99.90
6879;DHT22;3478;51.462;7.338;2023-05-07T19:03:57;17.30;99.90
6879;DHT22;3478;51.462;7.338;2023-05-07T19:09:00;17.20;99.90
6879;DHT22;3478;51.462;7.338;2023-05-07T19:14:02;17.10;99.90
6879;DHT22;3478;51.462;7.338;2023-05-07T19:19:04;17.10;99.90
6879;DHT22;3478;51.462;7.338;2023-05-07T19:24:08;17.10;99.90
6879;DHT22;3478;51.462;7.338;2023-05-07T19:29:10;17.00;99.90
6879;DHT22;3478;51.462;7.338;2023-05-07T19:34:12;17.00;99.90
6879;DHT22;3478;51.462;7.338;2023-05-07T19:39:15;17.00;99.90
6879;DHT22;3478;51.462;7.338;2023-05-07T19:44:18;16.90;99.90
6879;DHT22;3478;51.462;7.338;2023-05-07T19:49:20;16.90;99.90
6879;DHT22;3478;51.462;7.338;2023-05-07T19:54:23;16.80;99.90
6879;DHT22;3478;51.462;7.338;2023-05-07T19:59:26;16.80;99.90
6879;DHT22;3478;51.462;7.338;2023-05-07T20:04:28;16.80;99.90
6879;DHT22;3478;51.462;7.338;2023-05-07T20:09:34;16.70;99.90
6879;DHT22;3478;51.462;7.338;2023-05-07T20:14:36;16.60;99.90
6879;DHT22;3478;51.462;7.338;2023-05-07T20:19:37;16.60;99.90
6879;DHT22;3478;51.462;7.338;2023-05-07T20:24:41;16.50;99.90
6879;DHT22;3478;51.462;7.338;2023-05-07T20:29:43;16.40;99.90
6879;DHT22;3478;51.462;7.338;2023-05-07T20:34:45;16.40;99.90
6879;DHT22;3478;51.462;7.338;2023-05-07T20:39:48;16.30;99.90
6879;DHT22;3478;51.462;7.338;2023-05-07T20:44:50;16.30;99.90
6879;DHT22;3478;51.462;7.338;2023-05-07T20:49:53;16.30;99.90
6879;DHT22;3478;51.462;7.338;2023-05-07T20:54:56;16.20;99.90
6879;DHT22;3478;51.462;7.338;2023-05-07T20:59:58;16.20;99.90
6879;DHT22;3478;51.462;7.338;2023-05-07T21:05:00;16.10;99.90
6879;DHT22;3478;51.462;7.338;2023-05-07T21:10:05;16.00;99.90
6879;DHT22;3478;51.462;7.338;2023-05-07T21:15:09;16.00;99.90
6879;DHT22;3478;51.462;7.338;2023-05-07T21:20:11;16.00;99.90
6879;DHT22;3478;51.462;7.338;2023-05-07T21:25:14;16.00;99.90
6879;DHT22;3478;51.462;7.338;2023-05-07T21:30:16;16.00;99.90
6879;DHT22;3478;51.462;7.338;2023-05-07T21:35:18;16.00;99.90
6879;DHT22;3478;51.462;7.338;2023-05-07T21:40:21;15.90;99.90
6879;DHT22;3478;51.462;7.338;2023-05-07T21:45:23;15.80;99.90
6879;DHT22;3478;51.462;7.338;2023-05-07T21:50:26;15.80;99.90
6879;DHT22;3478;51.462;7.338;2023-05-07T21:55:29;15.80;99.90
6879;DHT22;3478;51.462;7.338;2023-05-07T22:00:31;15.70;99.90
6879;DHT22;3478;51.462;7.338;2023-05-07T22:05:33;15.60;99.90
6879;DHT22;3478;51.462;7.338;2023-05-07T22:10:37;15.60;99.90
6879;DHT22;3478;51.462;7.338;2023-05-07T22:15:39;15.50;99.90
6879;DHT22;3478;51.462;7.338;2023-05-07T22:20:41;15.50;99.90
6879;DHT22;3478;51.462;7.338;2023-05-07T22:25:44;15.50;99.90
6879;DHT22;3478;51.462;7.338;2023-05-07T22:30:46;15.40;99.90
6879;DHT22;3478;51.462;7.338;2023-05-07T22:35:48;15.30;99.90
6879;DHT22;3478;51.462;7.338;2023-05-07T22:40:51;15.20;99.90
6879;DHT22;3478;51.462;7.338;2023-05-07T22:45:57;15.10;99.90
6879;DHT22;3478;51.462;7.338;2023-05-07T22:51:04;15.20;99.90
6879;DHT22;3478;51.462;7.338;2023-05-07T22:56:08;15.20;99.90
6879;DHT22;3478;51.462;7.338;2023-05-07T23:01:10;15.20;99.90
6879;DHT22;3478;51.462;7.338;2023-05-07T23:06:13;15.20;99.90
6879;DHT22;3478;51.462;7.338;2023-05-07T23:11:16;15.30;99.90
6879;DHT22;3478;51.462;7.338;2023-05-07T23:16:18;15.30;99.90
6879;DHT22;3478;51.462;7.338;2023-05-07T23:21:20;15.30;99.90
6879;DHT22;3478;51.462;7.338;2023-05-07T23:26:25;15.30;99.90
6879;DHT22;3478;51.462;7.338;2023-05-07T23:31:27;15.30;99.90
6879;DHT22;3478;51.462;7.338;2023-05-07T23:36:30;15.20;99.90
6879;DHT22;3478;51.462;7.338;2023-05-07T23:41:33;15.20;99.90
6879;DHT22;3478;51.462;7.338;2023-05-07T23:46:35;15.10;99.90
6879;DHT22;3478;51.462;7.338;2023-05-07T23:51:37;15.10;99.90
6879;DHT22;3478;51.462;7.338;2023-05-07T23:56:41;15.10;99.90
